sensor_id;sensor_type;location;lat;lon;timestamp;P1;durP1;ratioP1;P2;durP2;ratioP2
27383;SDS011;14851;51.166;4.760;2023-08-21T00:01:31;6.30;;;1.70;;
27383;SDS011;14851;51.166;4.760;2023-08-21T00:03:57;5.00;;;1.40;;
27383;SDS011;14851;51.166;4.760;2023-08-21T00:06:23;5.75;;;1.30;;
27383;SDS011;14851;51.166;4.760;2023-08-21T00:08:49;10.27;;;1.90;;
27383;SDS011;14851;51.166;4.760;2023-08-21T00:11:15;4.47;;;1.25;;
27383;SDS011;14851;51.166;4.760;2023-08-21T00:13:41;4.97;;;1.50;;
27383;SDS011;14851;51.166;4.760;2023-08-21T00:16:10;5.05;;;1.50;;
27383;SDS011;14851;51.166;4.760;2023-08-21T00:18:42;5.00;;;1.27;;
27383;SDS011;14851;51.166;4.760;2023-08-21T00:21:08;6.45;;;1.65;;
27383;SDS011;14851;51.166;4.760;2023-08-21T00:23:34;4.65;;;1.17;;
27383;SDS011;14851;51.166;4.760;2023-08-21T00:26:00;4.10;;;1.30;;
27383;SDS011;14851;51.166;4.760;2023-08-21T00:28:26;4.00;;;1.15;;
27383;SDS011;14851;51.166;4.760;2023-08-21T00:31:01;6.15;;;1.35;;
27383;SDS011;14851;51.166;4.760;2023-08-21T00:33:30;5.85;;;2.35;;
27383;SDS011;14851;51.166;4.760;2023-08-21T00:35:58;6.45;;;1.88;;
27383;SDS011;14851;51.166;4.760;2023-08-21T00:38:27;4.28;;;1.17;;
27383;SDS011;14851;51.166;4.760;2023-08-21T00:40:55;5.05;;;1.45;;
27383;SDS011;14851;51.166;4.760;2023-08-21T00:43:23;5.85;;;1.50;;
27383;SDS011;14851;51.166;4.760;2023-08-21T00:45:50;6.90;;;1.83;;
27383;SDS011;14851;51.166;4.760;2023-08-21T00:48:16;6.70;;;1.45;;
27383;SDS011;14851;51.166;4.760;2023-08-21T00:50:43;7.45;;;2.42;;
27383;SDS011;14851;51.166;4.760;2023-08-21T00:53:10;7.30;;;1.50;;
27383;SDS011;14851;51.166;4.760;2023-08-21T00:55:36;6.32;;;1.85;;
27383;SDS011;14851;51.166;4.760;2023-08-21T00:58:03;4.95;;;2.03;;
27383;SDS011;14851;51.166;4.760;2023-08-21T01:00:30;5.38;;;1.23;;
27383;SDS011;14851;51.166;4.760;2023-08-21T01:02:55;6.40;;;1.38;;
27383;SDS011;14851;51.166;4.760;2023-08-21T01:05:22;7.10;;;1.40;;
27383;SDS011;14851;51.166;4.760;2023-08-21T01:07:53;6.78;;;1.65;;
27383;SDS011;14851;51.166;4.760;2023-08-21T01:15:56;5.43;;;1.40;;
27383;SDS011;14851;51.166;4.760;2023-08-21T01:18:25;4.35;;;1.17;;
27383;SDS011;14851;51.166;4.760;2023-08-21T01:20:53;5.07;;;1.50;;
27383;SDS011;14851;51.166;4.760;2023-08-21T01:26:02;4.70;;;1.60;;
27383;SDS011;14851;51.166;4.760;2023-08-21T01:28:30;6.10;;;1.52;;
27383;SDS011;14851;51.166;4.760;2023-08-21T01:33:54;4.60;;;1.45;;
27383;SDS011;14851;51.166;4.760;2023-08-21T01:36:23;3.15;;;1.30;;
27383;SDS011;14851;51.166;4.760;2023-08-21T01:38:51;5.15;;;1.80;;
27383;SDS011;14851;51.166;4.760;2023-08-21T01:41:17;5.00;;;1.40;;
27383;SDS011;14851;51.166;4.760;2023-08-21T01:43:44;7.53;;;1.83;;
27383;SDS011;14851;51.166;4.760;2023-08-21T01:46:11;6.22;;;1.88;;
27383;SDS011;14851;51.166;4.760;2023-08-21T01:48:37;10.52;;;2.15;;
27383;SDS011;14851;51.166;4.760;2023-08-21T01:51:03;5.53;;;1.55;;
27383;SDS011;14851;51.166;4.760;2023-08-21T01:53:29;4.28;;;1.83;;
27383;SDS011;14851;51.166;4.760;2023-08-21T01:55:57;6.65;;;1.77;;
27383;SDS011;14851;51.166;4.760;2023-08-21T01:58:23;5.80;;;1.50;;
27383;SDS011;14851;51.166;4.760;2023-08-21T02:00:50;3.75;;;1.65;;
27383;SDS011;14851;51.166;4.760;2023-08-21T02:03:16;6.85;;;1.85;;
27383;SDS011;14851;51.166;4.760;2023-08-21T02:05:42;6.43;;;1.92;;
27383;SDS011;14851;51.166;4.760;2023-08-21T02:08:09;5.53;;;1.48;;
27383;SDS011;14851;51.166;4.760;2023-08-21T02:10:49;5.22;;;1.75;;
27383;SDS011;14851;51.166;4.760;2023-08-21T02:13:20;7.65;;;1.60;;
27383;SDS011;14851;51.166;4.760;2023-08-21T02:15:46;7.10;;;1.50;;
27383;SDS011;14851;51.166;4.760;2023-08-21T02:18:12;6.78;;;2.00;;
27383;SDS011;14851;51.166;4.760;2023-08-21T02:20:39;3.60;;;1.50;;
27383;SDS011;14851;51.166;4.760;2023-08-21T02:23:06;6.13;;;1.58;;
27383;SDS011;14851;51.166;4.760;2023-08-21T02:25:32;4.03;;;1.85;;
27383;SDS011;14851;51.166;4.760;2023-08-21T02:27:58;6.68;;;1.45;;
27383;SDS011;14851;51.166;4.760;2023-08-21T02:30:25;4.97;;;1.60;;
27383;SDS011;14851;51.166;4.760;2023-08-21T02:32:52;6.35;;;1.33;;
27383;SDS011;14851;51.166;4.760;2023-08-21T02:35:22;5.68;;;1.70;;
27383;SDS011;14851;51.166;4.760;2023-08-21T02:37:52;6.50;;;1.63;;
27383;SDS011;14851;51.166;4.760;2023-08-21T02:40:19;7.53;;;1.75;;
27383;SDS011;14851;51.166;4.760;2023-08-21T02:42:45;4.75;;;1.58;;
27383;SDS011;14851;51.166;4.760;2023-08-21T02:45:13;6.78;;;1.63;;
27383;SDS011;14851;51.166;4.760;2023-08-21T02:47:41;5.28;;;1.77;;
27383;SDS011;14851;51.166;4.760;2023-08-21T02:50:08;5.82;;;1.50;;
27383;SDS011;14851;51.166;4.760;2023-08-21T02:52:35;3.92;;;1.45;;
27383;SDS011;14851;51.166;4.760;2023-08-21T02:55:02;7.40;;;1.45;;
27383;SDS011;14851;51.166;4.760;2023-08-21T02:57:32;5.13;;;1.73;;
27383;SDS011;14851;51.166;4.760;2023-08-21T02:59:58;6.78;;;1.70;;
27383;SDS011;14851;51.166;4.760;2023-08-21T03:02:25;3.38;;;1.60;;
27383;SDS011;14851;51.166;4.760;2023-08-21T03:04:53;7.97;;;1.55;;
27383;SDS011;14851;51.166;4.760;2023-08-21T03:07:22;7.85;;;1.83;;
27383;SDS011;14851;51.166;4.760;2023-08-21T03:09:48;5.05;;;1.45;;
27383;SDS011;14851;51.166;4.760;2023-08-21T03:12:15;6.28;;;1.90;;
27383;SDS011;14851;51.166;4.760;2023-08-21T03:14:40;5.65;;;1.70;;
27383;SDS011;14851;51.166;4.760;2023-08-21T03:17:09;3.80;;;1.90;;
27383;SDS011;14851;51.166;4.760;2023-08-21T03:19:35;4.03;;;1.90;;
27383;SDS011;14851;51.166;4.760;2023-08-21T03:22:04;6.10;;;1.98;;
27383;SDS011;14851;51.166;4.760;2023-08-21T03:24:35;6.05;;;1.65;;
27383;SDS011;14851;51.166;4.760;2023-08-21T03:27:01;6.70;;;1.63;;
27383;SDS011;14851;51.166;4.760;2023-08-21T03:29:30;5.18;;;1.45;;
27383;SDS011;14851;51.166;4.760;2023-08-21T03:34:24;5.30;;;1.80;;
27383;SDS011;14851;51.166;4.760;2023-08-21T03:36:54;9.38;;;2.25;;
27383;SDS011;14851;51.166;4.760;2023-08-21T03:39:20;7.80;;;1.77;;
27383;SDS011;14851;51.166;4.760;2023-08-21T03:41:46;7.60;;;2.30;;
27383;SDS011;14851;51.166;4.760;2023-08-21T03:44:14;6.38;;;1.98;;
27383;SDS011;14851;51.166;4.760;2023-08-21T03:46:40;7.00;;;2.63;;
27383;SDS011;14851;51.166;4.760;2023-08-21T03:49:10;7.35;;;2.35;;
27383;SDS011;14851;51.166;4.760;2023-08-21T03:51:38;5.10;;;2.03;;
27383;SDS011;14851;51.166;4.760;2023-08-21T03:54:04;4.50;;;1.83;;
27383;SDS011;14851;51.166;4.760;2023-08-21T03:56:30;4.40;;;1.52;;
27383;SDS011;14851;51.166;4.760;2023-08-21T03:58:56;9.88;;;2.10;;
27383;SDS011;14851;51.166;4.760;2023-08-21T04:01:24;6.78;;;2.30;;
27383;SDS011;14851;51.166;4.760;2023-08-21T04:03:51;5.78;;;2.00;;
27383;SDS011;14851;51.166;4.760;2023-08-21T04:06:18;7.10;;;1.92;;
27383;SDS011;14851;51.166;4.760;2023-08-21T04:08:43;8.45;;;2.58;;
27383;SDS011;14851;51.166;4.760;2023-08-21T04:11:11;4.55;;;1.90;;
27383;SDS011;14851;51.166;4.760;2023-08-21T04:13:37;6.05;;;2.08;;
27383;SDS011;14851;51.166;4.760;2023-08-21T04:16:05;4.68;;;1.88;;
27383;SDS011;14851;51.166;4.760;2023-08-21T04:18:33;4.50;;;1.83;;
27383;SDS011;14851;51.166;4.760;2023-08-21T04:21:02;5.90;;;2.10;;
27383;SDS011;14851;51.166;4.760;2023-08-21T04:23:29;6.28;;;2.25;;
27383;SDS011;14851;51.166;4.760;2023-08-21T04:25:59;7.30;;;2.03;;
27383;SDS011;14851;51.166;4.760;2023-08-21T04:28:27;4.38;;;1.80;;
27383;SDS011;14851;51.166;4.760;2023-08-21T04:30:53;5.55;;;2.25;;
27383;SDS011;14851;51.166;4.760;2023-08-21T04:33:19;8.38;;;2.60;;
27383;SDS011;14851;51.166;4.760;2023-08-21T04:35:47;11.90;;;2.40;;
27383;SDS011;14851;51.166;4.760;2023-08-21T04:38:13;6.55;;;2.35;;
27383;SDS011;14851;51.166;4.760;2023-08-21T04:40:39;6.30;;;1.90;;
27383;SDS011;14851;51.166;4.760;2023-08-21T04:43:05;4.05;;;1.77;;
27383;SDS011;14851;51.166;4.760;2023-08-21T04:45:34;8.32;;;2.28;;
27383;SDS011;14851;51.166;4.760;2023-08-21T04:48:04;8.88;;;2.72;;
27383;SDS011;14851;51.166;4.760;2023-08-21T04:50:31;4.15;;;2.03;;
27383;SDS011;14851;51.166;4.760;2023-08-21T04:52:59;8.45;;;2.00;;
27383;SDS011;14851;51.166;4.760;2023-08-21T04:55:27;5.57;;;2.10;;
27383;SDS011;14851;51.166;4.760;2023-08-21T04:57:54;4.38;;;2.00;;
27383;SDS011;14851;51.166;4.760;2023-08-21T05:00:22;6.05;;;2.50;;
27383;SDS011;14851;51.166;4.760;2023-08-21T05:02:48;8.48;;;2.13;;
27383;SDS011;14851;51.166;4.760;2023-08-21T05:05:15;5.22;;;1.90;;
27383;SDS011;14851;51.166;4.760;2023-08-21T05:07:41;8.10;;;2.75;;
27383;SDS011;14851;51.166;4.760;2023-08-21T05:10:08;6.28;;;2.17;;
27383;SDS011;14851;51.166;4.760;2023-08-21T05:12:37;6.93;;;2.15;;
27383;SDS011;14851;51.166;4.760;2023-08-21T05:15:03;7.43;;;2.10;;
27383;SDS011;14851;51.166;4.760;2023-08-21T05:17:29;11.10;;;2.45;;
27383;SDS011;14851;51.166;4.760;2023-08-21T05:19:56;5.65;;;1.77;;
27383;SDS011;14851;51.166;4.760;2023-08-21T05:22:22;7.80;;;2.15;;
27383;SDS011;14851;51.166;4.760;2023-08-21T05:24:49;5.25;;;1.80;;
27383;SDS011;14851;51.166;4.760;2023-08-21T05:27:15;6.88;;;1.65;;
27383;SDS011;14851;51.166;4.760;2023-08-21T05:29:41;7.32;;;2.15;;
27383;SDS011;14851;51.166;4.760;2023-08-21T05:32:08;9.20;;;2.10;;
27383;SDS011;14851;51.166;4.760;2023-08-21T05:34:34;5.45;;;2.10;;
27383;SDS011;14851;51.166;4.760;2023-08-21T05:37:00;5.75;;;1.90;;
27383;SDS011;14851;51.166;4.760;2023-08-21T05:39:29;6.60;;;2.40;;
27383;SDS011;14851;51.166;4.760;2023-08-21T05:41:55;4.60;;;1.80;;
27383;SDS011;14851;51.166;4.760;2023-08-21T05:44:22;8.88;;;2.50;;
27383;SDS011;14851;51.166;4.760;2023-08-21T05:46:48;7.25;;;1.92;;
27383;SDS011;14851;51.166;4.760;2023-08-21T05:49:15;11.20;;;2.10;;
27383;SDS011;14851;51.166;4.760;2023-08-21T05:51:41;4.53;;;1.60;;
27383;SDS011;14851;51.166;4.760;2023-08-21T05:54:07;7.75;;;1.90;;
27383;SDS011;14851;51.166;4.760;2023-08-21T05:56:35;7.47;;;1.75;;
27383;SDS011;14851;51.166;4.760;2023-08-21T05:59:01;7.97;;;2.40;;
27383;SDS011;14851;51.166;4.760;2023-08-21T06:01:27;5.30;;;1.88;;
27383;SDS011;14851;51.166;4.760;2023-08-21T06:03:53;6.43;;;2.20;;
27383;SDS011;14851;51.166;4.760;2023-08-21T06:06:43;6.80;;;2.10;;
27383;SDS011;14851;51.166;4.760;2023-08-21T06:09:08;6.57;;;1.85;;
27383;SDS011;14851;51.166;4.760;2023-08-21T06:11:34;6.78;;;2.08;;
27383;SDS011;14851;51.166;4.760;2023-08-21T06:14:02;7.35;;;2.42;;
27383;SDS011;14851;51.166;4.760;2023-08-21T06:16:31;6.60;;;2.20;;
27383;SDS011;14851;51.166;4.760;2023-08-21T06:18:57;8.25;;;2.45;;
27383;SDS011;14851;51.166;4.760;2023-08-21T06:21:23;11.07;;;2.25;;
27383;SDS011;14851;51.166;4.760;2023-08-21T06:23:49;8.40;;;2.10;;
27383;SDS011;14851;51.166;4.760;2023-08-21T06:26:15;9.70;;;2.03;;
27383;SDS011;14851;51.166;4.760;2023-08-21T06:28:42;6.05;;;2.15;;
27383;SDS011;14851;51.166;4.760;2023-08-21T06:31:12;6.90;;;2.17;;
27383;SDS011;14851;51.166;4.760;2023-08-21T06:33:41;6.50;;;2.33;;
27383;SDS011;14851;51.166;4.760;2023-08-21T06:36:06;5.90;;;1.60;;
27383;SDS011;14851;51.166;4.760;2023-08-21T06:38:32;8.68;;;2.25;;
27383;SDS011;14851;51.166;4.760;2023-08-21T06:40:58;6.18;;;1.90;;
27383;SDS011;14851;51.166;4.760;2023-08-21T06:43:25;6.45;;;1.98;;
27383;SDS011;14851;51.166;4.760;2023-08-21T06:45:53;8.85;;;2.10;;
27383;SDS011;14851;51.166;4.760;2023-08-21T06:48:19;5.95;;;1.83;;
27383;SDS011;14851;51.166;4.760;2023-08-21T06:50:48;6.75;;;1.55;;
27383;SDS011;14851;51.166;4.760;2023-08-21T06:53:13;6.15;;;2.10;;
27383;SDS011;14851;51.166;4.760;2023-08-21T06:55:39;9.57;;;1.95;;
27383;SDS011;14851;51.166;4.760;2023-08-21T06:58:05;8.10;;;2.22;;
27383;SDS011;14851;51.166;4.760;2023-08-21T07:00:31;5.53;;;1.90;;
27383;SDS011;14851;51.166;4.760;2023-08-21T07:02:57;7.28;;;1.70;;
27383;SDS011;14851;51.166;4.760;2023-08-21T07:05:24;7.47;;;1.58;;
27383;SDS011;14851;51.166;4.760;2023-08-21T07:07:52;6.00;;;1.88;;
27383;SDS011;14851;51.166;4.760;2023-08-21T07:10:21;10.05;;;2.22;;
27383;SDS011;14851;51.166;4.760;2023-08-21T07:12:47;6.32;;;1.55;;
27383;SDS011;14851;51.166;4.760;2023-08-21T07:15:13;12.90;;;1.80;;
27383;SDS011;14851;51.166;4.760;2023-08-21T07:17:41;7.50;;;1.67;;
27383;SDS011;14851;51.166;4.760;2023-08-21T07:20:09;6.90;;;1.95;;
27383;SDS011;14851;51.166;4.760;2023-08-21T07:22:37;7.82;;;2.17;;
27383;SDS011;14851;51.166;4.760;2023-08-21T07:25:03;6.50;;;1.58;;
27383;SDS011;14851;51.166;4.760;2023-08-21T07:27:31;5.18;;;1.42;;
27383;SDS011;14851;51.166;4.760;2023-08-21T07:29:57;11.15;;;2.33;;
27383;SDS011;14851;51.166;4.760;2023-08-21T07:32:25;7.38;;;1.70;;
27383;SDS011;14851;51.166;4.760;2023-08-21T07:34:52;5.53;;;2.03;;
27383;SDS011;14851;51.166;4.760;2023-08-21T07:37:20;7.32;;;1.67;;
27383;SDS011;14851;51.166;4.760;2023-08-21T07:39:47;5.03;;;1.52;;
27383;SDS011;14851;51.166;4.760;2023-08-21T07:42:13;8.07;;;1.63;;
27383;SDS011;14851;51.166;4.760;2023-08-21T07:44:39;7.03;;;1.60;;
27383;SDS011;14851;51.166;4.760;2023-08-21T07:47:07;5.68;;;1.90;;
27383;SDS011;14851;51.166;4.760;2023-08-21T07:49:33;5.78;;;1.40;;
27383;SDS011;14851;51.166;4.760;2023-08-21T07:51:59;7.68;;;1.75;;
27383;SDS011;14851;51.166;4.760;2023-08-21T07:54:28;7.50;;;1.98;;
27383;SDS011;14851;51.166;4.760;2023-08-21T07:56:57;4.13;;;1.63;;
27383;SDS011;14851;51.166;4.760;2023-08-21T07:59:24;7.40;;;1.90;;
27383;SDS011;14851;51.166;4.760;2023-08-21T08:01:51;8.57;;;1.98;;
27383;SDS011;14851;51.166;4.760;2023-08-21T08:04:16;8.13;;;2.03;;
27383;SDS011;14851;51.166;4.760;2023-08-21T08:06:42;8.63;;;2.00;;
27383;SDS011;14851;51.166;4.760;2023-08-21T08:09:08;4.47;;;1.40;;
27383;SDS011;14851;51.166;4.760;2023-08-21T08:11:34;7.15;;;2.10;;
27383;SDS011;14851;51.166;4.760;2023-08-21T08:14:00;6.45;;;1.90;;
27383;SDS011;14851;51.166;4.760;2023-08-21T08:16:27;6.18;;;1.60;;
27383;SDS011;14851;51.166;4.760;2023-08-21T08:18:53;5.70;;;1.40;;
27383;SDS011;14851;51.166;4.760;2023-08-21T08:21:19;6.38;;;2.17;;
27383;SDS011;14851;51.166;4.760;2023-08-21T08:23:44;4.93;;;1.77;;
27383;SDS011;14851;51.166;4.760;2023-08-21T08:26:10;6.10;;;1.83;;
27383;SDS011;14851;51.166;4.760;2023-08-21T08:28:36;6.90;;;1.67;;
27383;SDS011;14851;51.166;4.760;2023-08-21T08:31:02;5.93;;;1.42;;
27383;SDS011;14851;51.166;4.760;2023-08-21T08:33:30;6.70;;;1.40;;
27383;SDS011;14851;51.166;4.760;2023-08-21T08:35:56;3.65;;;1.00;;
27383;SDS011;14851;51.166;4.760;2023-08-21T08:38:22;5.20;;;1.23;;
27383;SDS011;14851;51.166;4.760;2023-08-21T08:40:48;5.65;;;1.88;;
27383;SDS011;14851;51.166;4.760;2023-08-21T08:43:21;9.02;;;2.13;;
27383;SDS011;14851;51.166;4.760;2023-08-21T08:45:49;7.60;;;1.90;;
27383;SDS011;14851;51.166;4.760;2023-08-21T08:48:17;6.32;;;1.83;;
27383;SDS011;14851;51.166;4.760;2023-08-21T08:50:46;8.48;;;2.10;;
27383;SDS011;14851;51.166;4.760;2023-08-21T08:53:14;7.32;;;2.00;;
27383;SDS011;14851;51.166;4.760;2023-08-21T08:55:40;7.13;;;2.00;;
27383;SDS011;14851;51.166;4.760;2023-08-21T08:58:10;3.93;;;1.40;;
27383;SDS011;14851;51.166;4.760;2023-08-21T09:00:36;5.57;;;1.50;;
27383;SDS011;14851;51.166;4.760;2023-08-21T09:03:02;7.25;;;1.85;;
27383;SDS011;14851;51.166;4.760;2023-08-21T09:05:29;4.70;;;1.73;;
27383;SDS011;14851;51.166;4.760;2023-08-21T09:10:40;6.30;;;1.25;;
27383;SDS011;14851;51.166;4.760;2023-08-21T09:13:12;2.65;;;0.98;;
27383;SDS011;14851;51.166;4.760;2023-08-21T09:15:40;2.40;;;0.90;;
27383;SDS011;14851;51.166;4.760;2023-08-21T09:18:21;5.25;;;1.05;;
27383;SDS011;14851;51.166;4.760;2023-08-21T09:20:48;3.97;;;0.90;;
27383;SDS011;14851;51.166;4.760;2023-08-21T09:23:14;4.85;;;1.60;;
27383;SDS011;14851;51.166;4.760;2023-08-21T09:25:43;3.97;;;1.25;;
27383;SDS011;14851;51.166;4.760;2023-08-21T09:28:13;1.75;;;0.70;;
27383;SDS011;14851;51.166;4.760;2023-08-21T09:30:45;6.30;;;1.25;;
27383;SDS011;14851;51.166;4.760;2023-08-21T09:33:13;7.13;;;1.65;;
27383;SDS011;14851;51.166;4.760;2023-08-21T09:35:43;4.65;;;1.30;;
27383;SDS011;14851;51.166;4.760;2023-08-21T09:38:09;5.28;;;1.60;;
27383;SDS011;14851;51.166;4.760;2023-08-21T09:40:43;4.43;;;1.20;;
27383;SDS011;14851;51.166;4.760;2023-08-21T09:43:19;9.30;;;2.00;;
27383;SDS011;14851;51.166;4.760;2023-08-21T09:45:49;6.18;;;1.80;;
27383;SDS011;14851;51.166;4.760;2023-08-21T09:48:25;7.55;;;2.67;;
27383;SDS011;14851;51.166;4.760;2023-08-21T09:53:25;5.32;;;2.80;;
27383;SDS011;14851;51.166;4.760;2023-08-21T09:55:54;9.15;;;3.00;;
27383;SDS011;14851;51.166;4.760;2023-08-21T09:58:20;7.00;;;2.42;;
27383;SDS011;14851;51.166;4.760;2023-08-21T10:00:50;7.50;;;1.52;;
27383;SDS011;14851;51.166;4.760;2023-08-21T10:03:22;3.75;;;1.20;;
27383;SDS011;14851;51.166;4.760;2023-08-21T10:05:54;7.90;;;1.90;;
27383;SDS011;14851;51.166;4.760;2023-08-21T10:08:26;5.53;;;1.30;;
27383;SDS011;14851;51.166;4.760;2023-08-21T10:10:53;5.82;;;1.88;;
27383;SDS011;14851;51.166;4.760;2023-08-21T10:13:20;4.97;;;1.30;;
27383;SDS011;14851;51.166;4.760;2023-08-21T10:15:46;4.13;;;1.42;;
27383;SDS011;14851;51.166;4.760;2023-08-21T10:18:34;9.15;;;2.45;;
27383;SDS011;14851;51.166;4.760;2023-08-21T10:23:59;7.90;;;2.17;;
27383;SDS011;14851;51.166;4.760;2023-08-21T10:26:26;7.40;;;2.78;;
27383;SDS011;14851;51.166;4.760;2023-08-21T10:28:55;8.10;;;1.92;;
27383;SDS011;14851;51.166;4.760;2023-08-21T10:34:02;8.88;;;2.60;;
27383;SDS011;14851;51.166;4.760;2023-08-21T10:39:19;4.57;;;1.38;;
27383;SDS011;14851;51.166;4.760;2023-08-21T10:41:54;3.75;;;1.40;;
27383;SDS011;14851;51.166;4.760;2023-08-21T10:49:52;3.72;;;1.10;;
27383;SDS011;14851;51.166;4.760;2023-08-21T10:52:34;4.03;;;1.13;;
27383;SDS011;14851;51.166;4.760;2023-08-21T10:55:03;8.98;;;1.58;;
27383;SDS011;14851;51.166;4.760;2023-08-21T10:57:29;6.63;;;1.33;;
27383;SDS011;14851;51.166;4.760;2023-08-21T10:59:58;6.32;;;1.67;;
27383;SDS011;14851;51.166;4.760;2023-08-21T11:02:28;7.03;;;1.67;;
27383;SDS011;14851;51.166;4.760;2023-08-21T11:04:57;4.65;;;1.50;;
27383;SDS011;14851;51.166;4.760;2023-08-21T11:07:24;6.93;;;1.70;;
27383;SDS011;14851;51.166;4.760;2023-08-21T11:09:51;4.93;;;1.20;;
27383;SDS011;14851;51.166;4.760;2023-08-21T11:14:48;3.85;;;1.33;;
27383;SDS011;14851;51.166;4.760;2023-08-21T11:17:14;3.90;;;1.55;;
27383;SDS011;14851;51.166;4.760;2023-08-21T11:19:41;5.93;;;1.65;;
27383;SDS011;14851;51.166;4.760;2023-08-21T11:22:07;6.45;;;1.73;;
27383;SDS011;14851;51.166;4.760;2023-08-21T11:27:03;6.65;;;1.90;;
27383;SDS011;14851;51.166;4.760;2023-08-21T11:29:32;3.50;;;1.60;;
27383;SDS011;14851;51.166;4.760;2023-08-21T11:32:08;5.82;;;2.30;;
27383;SDS011;14851;51.166;4.760;2023-08-21T11:34:47;6.10;;;2.70;;
27383;SDS011;14851;51.166;4.760;2023-08-21T11:37:20;6.22;;;1.50;;
27383;SDS011;14851;51.166;4.760;2023-08-21T11:39:51;6.65;;;1.50;;
27383;SDS011;14851;51.166;4.760;2023-08-21T11:42:22;5.88;;;1.90;;
27383;SDS011;14851;51.166;4.760;2023-08-21T11:44:58;6.38;;;1.73;;
27383;SDS011;14851;51.166;4.760;2023-08-21T11:47:34;8.45;;;2.28;;
27383;SDS011;14851;51.166;4.760;2023-08-21T11:50:07;6.43;;;1.63;;
27383;SDS011;14851;51.166;4.760;2023-08-21T11:52:36;4.35;;;1.67;;
27383;SDS011;14851;51.166;4.760;2023-08-21T11:55:07;5.45;;;1.58;;
27383;SDS011;14851;51.166;4.760;2023-08-21T11:57:49;7.70;;;1.92;;
27383;SDS011;14851;51.166;4.760;2023-08-21T12:00:18;4.20;;;1.38;;
27383;SDS011;14851;51.166;4.760;2023-08-21T12:02:57;4.68;;;1.58;;
27383;SDS011;14851;51.166;4.760;2023-08-21T12:05:28;6.47;;;1.63;;
27383;SDS011;14851;51.166;4.760;2023-08-21T12:07:54;2.90;;;1.23;;
27383;SDS011;14851;51.166;4.760;2023-08-21T12:10:23;4.22;;;1.27;;
27383;SDS011;14851;51.166;4.760;2023-08-21T12:12:50;5.00;;;1.35;;
27383;SDS011;14851;51.166;4.760;2023-08-21T12:15:16;3.65;;;1.40;;
27383;SDS011;14851;51.166;4.760;2023-08-21T12:17:43;5.68;;;1.83;;
27383;SDS011;14851;51.166;4.760;2023-08-21T12:20:09;4.82;;;1.40;;
27383;SDS011;14851;51.166;4.760;2023-08-21T12:25:07;5.18;;;1.45;;
27383;SDS011;14851;51.166;4.760;2023-08-21T12:27:35;4.30;;;1.20;;
27383;SDS011;14851;51.166;4.760;2023-08-21T12:30:01;4.00;;;1.23;;
27383;SDS011;14851;51.166;4.760;2023-08-21T12:32:29;4.63;;;1.48;;
27383;SDS011;14851;51.166;4.760;2023-08-21T12:34:55;8.05;;;1.27;;
27383;SDS011;14851;51.166;4.760;2023-08-21T12:37:22;7.75;;;1.42;;
27383;SDS011;14851;51.166;4.760;2023-08-21T12:39:51;5.68;;;1.40;;
27383;SDS011;14851;51.166;4.760;2023-08-21T12:42:18;5.63;;;1.48;;
27383;SDS011;14851;51.166;4.760;2023-08-21T12:44:44;5.78;;;1.65;;
27383;SDS011;14851;51.166;4.760;2023-08-21T12:47:10;3.65;;;1.20;;
27383;SDS011;14851;51.166;4.760;2023-08-21T12:49:35;2.67;;;1.20;;
27383;SDS011;14851;51.166;4.760;2023-08-21T12:52:03;3.40;;;1.15;;
27383;SDS011;14851;51.166;4.760;2023-08-21T12:54:33;5.82;;;1.33;;
27383;SDS011;14851;51.166;4.760;2023-08-21T12:56:59;4.07;;;1.10;;
27383;SDS011;14851;51.166;4.760;2023-08-21T12:59:26;3.03;;;0.90;;
27383;SDS011;14851;51.166;4.760;2023-08-21T13:01:52;4.25;;;1.08;;
27383;SDS011;14851;51.166;4.760;2023-08-21T13:04:18;2.72;;;1.13;;
27383;SDS011;14851;51.166;4.760;2023-08-21T13:06:44;3.58;;;1.10;;
27383;SDS011;14851;51.166;4.760;2023-08-21T13:09:10;3.50;;;1.10;;
27383;SDS011;14851;51.166;4.760;2023-08-21T13:11:36;3.88;;;1.25;;
27383;SDS011;14851;51.166;4.760;2023-08-21T13:14:01;4.55;;;1.23;;
27383;SDS011;14851;51.166;4.760;2023-08-21T13:16:28;3.38;;;1.10;;
27383;SDS011;14851;51.166;4.760;2023-08-21T13:18:53;4.78;;;1.10;;
27383;SDS011;14851;51.166;4.760;2023-08-21T13:21:19;2.78;;;1.10;;
27383;SDS011;14851;51.166;4.760;2023-08-21T13:23:45;3.72;;;1.00;;
27383;SDS011;14851;51.166;4.760;2023-08-21T13:26:11;5.30;;;1.45;;
27383;SDS011;14851;51.166;4.760;2023-08-21T13:28:37;3.53;;;1.27;;
27383;SDS011;14851;51.166;4.760;2023-08-21T13:31:02;5.57;;;2.35;;
27383;SDS011;14851;51.166;4.760;2023-08-21T13:33:28;5.95;;;1.20;;
27383;SDS011;14851;51.166;4.760;2023-08-21T13:35:55;2.60;;;1.10;;
27383;SDS011;14851;51.166;4.760;2023-08-21T13:38:21;3.67;;;1.20;;
27383;SDS011;14851;51.166;4.760;2023-08-21T13:40:47;2.72;;;0.93;;
27383;SDS011;14851;51.166;4.760;2023-08-21T13:43:13;2.22;;;0.80;;
27383;SDS011;14851;51.166;4.760;2023-08-21T13:45:39;4.47;;;1.10;;
27383;SDS011;14851;51.166;4.760;2023-08-21T13:48:08;2.85;;;1.00;;
27383;SDS011;14851;51.166;4.760;2023-08-21T13:50:33;3.58;;;1.00;;
27383;SDS011;14851;51.166;4.760;2023-08-21T13:52:59;4.53;;;1.08;;
27383;SDS011;14851;51.166;4.760;2023-08-21T13:55:26;5.30;;;1.23;;
27383;SDS011;14851;51.166;4.760;2023-08-21T13:57:51;3.22;;;1.00;;
27383;SDS011;14851;51.166;4.760;2023-08-21T14:00:17;2.05;;;0.70;;
27383;SDS011;14851;51.166;4.760;2023-08-21T14:02:43;2.40;;;0.93;;
27383;SDS011;14851;51.166;4.760;2023-08-21T14:05:09;2.95;;;0.70;;
27383;SDS011;14851;51.166;4.760;2023-08-21T14:07:36;2.28;;;0.73;;
27383;SDS011;14851;51.166;4.760;2023-08-21T14:10:05;1.60;;;0.75;;
27383;SDS011;14851;51.166;4.760;2023-08-21T14:12:32;2.45;;;0.57;;
27383;SDS011;14851;51.166;4.760;2023-08-21T14:14:59;1.40;;;0.57;;
27383;SDS011;14851;51.166;4.760;2023-08-21T14:17:26;2.88;;;0.63;;
27383;SDS011;14851;51.166;4.760;2023-08-21T14:19:55;4.43;;;0.80;;
27383;SDS011;14851;51.166;4.760;2023-08-21T14:22:22;2.20;;;0.73;;
27383;SDS011;14851;51.166;4.760;2023-08-21T14:24:48;5.50;;;0.68;;
27383;SDS011;14851;51.166;4.760;2023-08-21T14:27:14;3.45;;;1.10;;
27383;SDS011;14851;51.166;4.760;2023-08-21T14:29:43;3.75;;;0.80;;
27383;SDS011;14851;51.166;4.760;2023-08-21T14:32:09;2.22;;;0.80;;
27383;SDS011;14851;51.166;4.760;2023-08-21T14:34:37;3.97;;;0.82;;
27383;SDS011;14851;51.166;4.760;2023-08-21T14:37:03;2.95;;;0.70;;
27383;SDS011;14851;51.166;4.760;2023-08-21T14:39:33;2.30;;;0.75;;
27383;SDS011;14851;51.166;4.760;2023-08-21T14:41:59;2.58;;;0.80;;
27383;SDS011;14851;51.166;4.760;2023-08-21T14:44:26;2.55;;;0.93;;
27383;SDS011;14851;51.166;4.760;2023-08-21T14:46:55;3.70;;;0.60;;
27383;SDS011;14851;51.166;4.760;2023-08-21T14:49:21;3.40;;;0.80;;
27383;SDS011;14851;51.166;4.760;2023-08-21T14:51:47;2.78;;;0.70;;
27383;SDS011;14851;51.166;4.760;2023-08-21T14:54:13;4.00;;;0.90;;
27383;SDS011;14851;51.166;4.760;2023-08-21T14:56:39;3.10;;;0.70;;
27383;SDS011;14851;51.166;4.760;2023-08-21T14:59:05;4.80;;;0.93;;
27383;SDS011;14851;51.166;4.760;2023-08-21T15:01:31;3.50;;;0.63;;
27383;SDS011;14851;51.166;4.760;2023-08-21T15:03:57;8.23;;;0.80;;
27383;SDS011;14851;51.166;4.760;2023-08-21T15:06:22;3.58;;;0.65;;
27383;SDS011;14851;51.166;4.760;2023-08-21T15:08:51;3.75;;;0.82;;
27383;SDS011;14851;51.166;4.760;2023-08-21T15:11:20;2.60;;;0.70;;
27383;SDS011;14851;51.166;4.760;2023-08-21T15:13:48;4.72;;;0.60;;
27383;SDS011;14851;51.166;4.760;2023-08-21T15:16:14;3.28;;;0.77;;
27383;SDS011;14851;51.166;4.760;2023-08-21T15:18:39;3.88;;;0.80;;
27383;SDS011;14851;51.166;4.760;2023-08-21T15:21:05;4.60;;;0.65;;
27383;SDS011;14851;51.166;4.760;2023-08-21T15:23:31;3.88;;;0.70;;
27383;SDS011;14851;51.166;4.760;2023-08-21T15:25:57;3.13;;;0.80;;
27383;SDS011;14851;51.166;4.760;2023-08-21T15:28:23;2.65;;;0.63;;
27383;SDS011;14851;51.166;4.760;2023-08-21T15:30:51;5.03;;;0.75;;